Aviation Digital Data Service (ADDS)

Output produced by METARs form (0619 UTC 19 February 2019)
found at http://www.aviationweather.gov/metar/data/
 
Forecast for: LCPH (PAPHOS/BAF INTL , CY)
Text: TAF LCPH 190530Z 1906/2006 27015KT 9999 FEW025
Forecast period: 0600 to 1600 UTC 19 February 2019
Forecast type: FROM: standard forecast or significant change
Winds: from the W (270 degrees) at 17 MPH (15 knots; 7.7 m/s)
Visibility: 6 or more miles 10+ km)
Ceiling: at least 12,000 feet AGL
Clouds: few clouds at 2500 feet AGL
Weather: no significant weather forecast for this period
Text: BECMG 1916/1919 34008KT
Forecast period: 1600 UTC 19 February 2019 to 0600 UTC 20 February 2019
Forecast type: BECOMING: Conditions expected to become as follows by 1900 UTC 19 February 2019
Winds: from the NNW (340 degrees) at 9 MPH (8 knots; 4.1 m/s)
Visibility: 6 or more miles 10+ km)
Ceiling: at least 12,000 feet AGL
Clouds: few clouds at 2500 feet AGL
Weather: no significant weather forecast for this period